Time;durP1;ratioP1;P1;durP2;ratioP2;P2;SDS_P1;SDS_P2;PMS_P1;PMS_P2;Temp;Humidity;BMP_temperature;BMP_pressure;BME280_temperature;BME280_humidity;BME280_pressure;Samples;Min_cycle;Max_cycle;Signal;HPM_P1;HPM_P2
2021/11/20 00:00:15;;;;;;;21.02;13.15;;;;;;;;;;5038920;28;20505;-82
2021/11/20 00:02:41;;;;;;;21.70;11.90;;;;;;;;;;5055322;28;20139;-82
2021/11/20 00:05:08;;;;;;;23.58;12.82;;;;;;;;;;5055336;28;20048;-81
2021/11/20 00:07:34;;;;;;;20.15;12.77;;;;;;;;;;5038592;28;20049;-83
2021/11/20 00:10:00;;;;;;;22.65;13.30;;;;;;;;;;5038701;28;20103;-82
2021/11/20 00:12:28;;;;;;;24.33;13.38;;;;;;;;;;5055114;28;20054;-82
2021/11/20 00:14:54;;;;;;;24.92;13.52;;;;;;;;;;5038540;28;20044;-82
2021/11/20 00:17:21;;;;;;;24.95;12.50;;;;;;;;;;5054968;28;20083;-81
2021/11/20 00:19:47;;;;;;;20.85;12.48;;;;;;;;;;5054940;28;20048;-85
2021/11/20 00:22:16;;;;;;;23.27;13.63;;;;;;;;;;5038658;28;20485;-81
2021/11/20 00:24:44;;;;;;;23.35;12.35;;;;;;;;;;5038237;28;20500;-83
2021/11/20 00:27:16;;;;;;;25.02;12.07;;;;;;;;;;5038377;28;20052;-83
2021/11/20 00:30:02;;;;;;;21.42;12.80;;;;;;;;;;5039193;28;20048;-82
2021/11/20 00:32:31;;;;;;;29.10;15.10;;;;;;;;;;5038524;28;20485;-83
2021/11/20 00:34:59;;;;;;;23.65;12.30;;;;;;;;;;5055027;28;20055;-82
2021/11/20 00:37:26;;;;;;;24.65;13.45;;;;;;;;;;5054995;28;20059;-82
2021/11/20 00:39:52;;;;;;;19.02;11.13;;;;;;;;;;5054854;28;20143;-81
2021/11/20 00:42:19;;;;;;;25.92;12.32;;;;;;;;;;5038670;28;20079;-82
2021/11/20 00:44:46;;;;;;;23.73;12.48;;;;;;;;;;5055400;28;20373;-85
2021/11/20 00:47:12;;;;;;;21.17;11.38;;;;;;;;;;5038440;28;20064;-83
2021/11/20 00:49:38;;;;;;;21.13;10.77;;;;;;;;;;5055144;28;20098;-81
2021/11/20 00:52:05;;;;;;;21.70;14.10;;;;;;;;;;5072144;28;20044;-82
2021/11/20 00:54:32;;;;;;;23.58;12.70;;;;;;;;;;5055237;28;20118;-82
2021/11/20 00:56:58;;;;;;;26.48;11.48;;;;;;;;;;5059261;28;20071;-82
2021/11/20 00:59:24;;;;;;;21.13;11.35;;;;;;;;;;5058670;28;20102;-82
2021/11/20 01:01:55;;;;;;;19.88;11.48;;;;;;;;;;5058217;28;20055;-82
2021/11/20 01:04:22;;;;;;;25.08;11.25;;;;;;;;;;5058235;28;20048;-83
2021/11/20 01:06:49;;;;;;;19.58;11.32;;;;;;;;;;5058676;28;20048;-82
2021/11/20 01:09:18;;;;;;;21.58;11.13;;;;;;;;;;5058405;28;20052;-81
2021/11/20 01:11:49;;;;;;;21.02;11.48;;;;;;;;;;5059072;28;20059;-84
2021/11/20 01:14:16;;;;;;;18.30;10.55;;;;;;;;;;5058414;28;20052;-83
2021/11/20 01:16:43;;;;;;;20.67;10.63;;;;;;;;;;5058764;28;20064;-82
2021/11/20 01:19:10;;;;;;;20.42;10.77;;;;;;;;;;5058869;28;20044;-82
2021/11/20 01:21:36;;;;;;;20.10;10.52;;;;;;;;;;5075885;28;20055;-81
2021/11/20 01:24:04;;;;;;;21.70;11.10;;;;;;;;;;5057886;28;20048;-82
2021/11/20 01:26:30;;;;;;;20.10;10.65;;;;;;;;;;5041501;28;20136;-83
2021/11/20 01:28:57;;;;;;;20.52;10.27;;;;;;;;;;5075547;28;20063;-83
2021/11/20 01:31:25;;;;;;;20.17;10.65;;;;;;;;;;5041408;28;20450;-82
2021/11/20 01:33:51;;;;;;;16.77;9.73;;;;;;;;;;5057766;28;20396;-82
2021/11/20 01:36:19;;;;;;;18.85;10.05;;;;;;;;;;5041066;28;20045;-83
2021/11/20 01:38:45;;;;;;;24.85;11.70;;;;;;;;;;5075447;28;20477;-86
2021/11/20 01:41:12;;;;;;;22.45;10.50;;;;;;;;;;5075964;28;20221;-81
2021/11/20 01:43:38;;;;;;;22.80;10.57;;;;;;;;;;5058233;28;20386;-83
2021/11/20 01:46:13;;;;;;;21.83;11.65;;;;;;;;;;5057384;28;20048;-82
2021/11/20 01:48:58;;;;;;;21.10;11.40;;;;;;;;;;5057584;28;20414;-82
2021/11/20 01:51:24;;;;;;;13.68;8.65;;;;;;;;;;5057708;28;20102;-82
2021/11/20 01:53:54;;;;;;;21.38;10.57;;;;;;;;;;5057324;28;20547;-82
2021/11/20 01:56:40;;;;;;;19.90;11.77;;;;;;;;;;5040965;28;20048;-82
2021/11/20 01:59:12;;;;;;;19.60;10.18;;;;;;;;;;5074757;28;20036;-82
2021/11/20 02:01:42;;;;;;;19.77;10.75;;;;;;;;;;5057486;28;20401;-82
2021/11/20 02:04:20;;;;;;;22.25;11.90;;;;;;;;;;5057111;28;20481;-83
2021/11/20 02:06:50;;;;;;;19.15;10.38;;;;;;;;;;5057058;28;20143;-87
2021/11/20 02:09:19;;;;;;;23.00;12.45;;;;;;;;;;5040446;28;20084;-83
2021/11/20 02:11:48;;;;;;;24.65;11.30;;;;;;;;;;5040454;28;20094;-86
2021/11/20 02:14:15;;;;;;;18.50;10.43;;;;;;;;;;5040625;28;20055;-82
2021/11/20 02:16:44;;;;;;;19.40;12.05;;;;;;;;;;5057119;28;20049;-83
2021/11/20 02:19:13;;;;;;;22.23;11.85;;;;;;;;;;5057560;28;20055;-82
2021/11/20 02:21:39;;;;;;;20.05;11.30;;;;;;;;;;5041075;28;20055;-82
2021/11/20 02:24:05;;;;;;;23.05;11.02;;;;;;;;;;5057418;28;20068;-83
2021/11/20 02:26:31;;;;;;;23.52;12.18;;;;;;;;;;5041163;28;20048;-82
2021/11/20 02:28:58;;;;;;;20.30;11.88;;;;;;;;;;5041083;28;20044;-82
2021/11/20 02:31:25;;;;;;;22.90;11.57;;;;;;;;;;5056881;28;20393;-82
2021/11/20 02:33:52;;;;;;;19.98;11.18;;;;;;;;;;5056680;28;20048;-82
2021/11/20 02:36:22;;;;;;;24.30;12.13;;;;;;;;;;5057085;28;20135;-81
2021/11/20 02:39:01;;;;;;;19.13;11.35;;;;;;;;;;5040053;28;20190;-86
2021/11/20 02:41:28;;;;;;;19.25;11.82;;;;;;;;;;5040122;28;20527;-82
2021/11/20 02:43:56;;;;;;;21.40;10.98;;;;;;;;;;5056348;28;20044;-82
2021/11/20 02:46:24;;;;;;;23.30;11.18;;;;;;;;;;5056528;28;20080;-81
2021/11/20 02:48:50;;;;;;;20.85;11.25;;;;;;;;;;5056078;28;20045;-83
2021/11/20 02:51:21;;;;;;;17.17;9.75;;;;;;;;;;5056435;28;20131;-82
2021/11/20 02:53:50;;;;;;;21.45;11.40;;;;;;;;;;5040987;28;20462;-85
2021/11/20 02:59:03;;;;;;;23.30;11.88;;;;;;;;;;5056086;28;20049;-81
2021/11/20 03:01:35;;;;;;;19.45;11.48;;;;;;;;;;5056124;28;20040;-82
2021/11/20 03:04:02;;;;;;;20.40;11.70;;;;;;;;;;5055950;28;20072;-82
2021/11/20 03:06:28;;;;;;;20.75;11.90;;;;;;;;;;5056639;28;20083;-82
2021/11/20 03:08:55;;;;;;;19.15;10.75;;;;;;;;;;5056108;28;20072;-81
2021/11/20 03:11:21;;;;;;;18.27;10.65;;;;;;;;;;5055868;28;20051;-81
2021/11/20 03:13:51;;;;;;;21.55;11.40;;;;;;;;;;5056016;28;20105;-86
2021/11/20 03:16:17;;;;;;;18.42;12.18;;;;;;;;;;5056746;28;20040;-82
2021/11/20 03:18:43;;;;;;;18.33;11.48;;;;;;;;;;5052095;28;20132;-82
2021/11/20 03:21:10;;;;;;;18.33;11.40;;;;;;;;;;5069682;28;20190;-81
2021/11/20 03:23:39;;;;;;;22.55;11.55;;;;;;;;;;5074181;28;20414;-81
2021/11/20 03:26:06;;;;;;;21.10;12.55;;;;;;;;;;5073724;28;20044;-82
2021/11/20 03:28:32;;;;;;;19.40;12.30;;;;;;;;;;5055824;28;20136;-82
2021/11/20 03:30:58;;;;;;;19.35;12.88;;;;;;;;;;5055760;28;20044;-83
2021/11/20 03:33:25;;;;;;;22.65;13.25;;;;;;;;;;5056053;28;20051;-82
2021/11/20 03:35:52;;;;;;;22.67;12.73;;;;;;;;;;5039891;28;20369;-82
2021/11/20 03:38:18;;;;;;;22.90;12.98;;;;;;;;;;5039102;28;20044;-83
2021/11/20 03:40:44;;;;;;;19.25;12.45;;;;;;;;;;5055433;28;20478;-82
2021/11/20 03:43:11;;;;;;;20.92;12.38;;;;;;;;;;5039566;28;20127;-83
2021/11/20 03:45:38;;;;;;;22.10;13.48;;;;;;;;;;5055333;28;20556;-82
2021/11/20 03:48:06;;;;;;;20.98;13.02;;;;;;;;;;5056263;28;20401;-83
2021/11/20 03:50:33;;;;;;;21.42;13.10;;;;;;;;;;5055613;28;20081;-82
2021/11/20 03:52:59;;;;;;;23.85;15.40;;;;;;;;;;5054704;28;20144;-82
2021/11/20 03:55:27;;;;;;;21.55;13.45;;;;;;;;;;5055196;28;20052;-82
2021/11/20 03:57:54;;;;;;;21.08;13.00;;;;;;;;;;5038429;28;20506;-82
2021/11/20 04:00:22;;;;;;;22.50;13.48;;;;;;;;;;5038830;28;20052;-82
2021/11/20 04:02:48;;;;;;;23.27;14.40;;;;;;;;;;5055186;28;20037;-86
2021/11/20 04:05:15;;;;;;;19.52;13.18;;;;;;;;;;5055741;28;20051;-81
2021/11/20 04:07:41;;;;;;;20.63;12.85;;;;;;;;;;5055545;28;20135;-81
2021/11/20 04:10:09;;;;;;;24.52;14.60;;;;;;;;;;5073399;28;20093;-81
2021/11/20 04:12:35;;;;;;;22.75;13.98;;;;;;;;;;5055435;28;20127;-82
2021/11/20 04:15:02;;;;;;;24.23;13.65;;;;;;;;;;5055306;28;20048;-82
2021/11/20 04:17:28;;;;;;;26.58;15.73;;;;;;;;;;5055112;28;20056;-82
2021/11/20 04:19:54;;;;;;;22.33;14.93;;;;;;;;;;5054847;28;20063;-83
2021/11/20 04:22:20;;;;;;;26.58;14.82;;;;;;;;;;5055043;28;20043;-82
2021/11/20 04:24:46;;;;;;;23.70;14.70;;;;;;;;;;5038275;28;20044;-81
2021/11/20 04:27:12;;;;;;;22.63;15.60;;;;;;;;;;5039062;28;20135;-81
2021/11/20 04:29:39;;;;;;;22.27;15.02;;;;;;;;;;5073808;28;20089;-83
2021/11/20 04:32:05;;;;;;;20.90;12.32;;;;;;;;;;5059073;28;20052;-82
2021/11/20 04:34:32;;;;;;;25.48;14.80;;;;;;;;;;5059811;28;20049;-82
2021/11/20 04:36:59;;;;;;;25.00;13.98;;;;;;;;;;5058886;28;20507;-83
2021/11/20 04:39:25;;;;;;;27.65;14.48;;;;;;;;;;5058745;28;20052;-81
2021/11/20 04:41:51;;;;;;;21.58;13.50;;;;;;;;;;5059085;28;20106;-83
2021/11/20 04:44:19;;;;;;;23.88;14.23;;;;;;;;;;5059387;28;20040;-81
2021/11/20 04:46:45;;;;;;;27.70;14.50;;;;;;;;;;5058846;28;20511;-84
2021/11/20 04:49:12;;;;;;;22.63;13.77;;;;;;;;;;5041987;28;20048;-82
2021/11/20 04:51:38;;;;;;;21.60;14.27;;;;;;;;;;5058465;28;20048;-83
2021/11/20 04:54:04;;;;;;;24.42;14.13;;;;;;;;;;5058066;28;20483;-81
2021/11/20 04:56:30;;;;;;;23.65;13.90;;;;;;;;;;5058676;28;20059;-83
2021/11/20 04:58:57;;;;;;;23.35;14.57;;;;;;;;;;5041682;28;20131;-82
2021/11/20 05:01:25;;;;;;;22.52;13.68;;;;;;;;;;5042548;28;20045;-82
2021/11/20 05:03:52;;;;;;;23.30;12.50;;;;;;;;;;5058072;28;20040;-83
2021/11/20 05:06:19;;;;;;;22.77;13.60;;;;;;;;;;5042080;28;20123;-82
2021/11/20 05:08:45;;;;;;;22.08;13.50;;;;;;;;;;5041911;28;20052;-84
2021/11/20 05:11:11;;;;;;;26.50;14.57;;;;;;;;;;5059080;28;20389;-81
2021/11/20 05:13:37;;;;;;;23.70;14.05;;;;;;;;;;5076465;28;20048;-81
2021/11/20 05:16:03;;;;;;;21.05;13.25;;;;;;;;;;5057946;28;20052;-81
2021/11/20 05:18:30;;;;;;;24.73;13.77;;;;;;;;;;5075920;28;20095;-82
2021/11/20 05:20:59;;;;;;;23.63;14.07;;;;;;;;;;5057959;28;20053;-82
2021/11/20 05:23:26;;;;;;;26.00;14.32;;;;;;;;;;5058023;28;20127;-82
2021/11/20 05:25:52;;;;;;;21.17;12.95;;;;;;;;;;5041674;28;20098;-82
2021/11/20 05:28:19;;;;;;;22.63;13.85;;;;;;;;;;5057886;28;20087;-82
2021/11/20 05:30:46;;;;;;;23.08;14.43;;;;;;;;;;5041420;28;20055;-81
2021/11/20 05:33:24;;;;;;;22.50;13.25;;;;;;;;;;5058159;28;20187;-82
2021/11/20 05:35:51;;;;;;;23.48;13.60;;;;;;;;;;5075479;28;20098;-86
2021/11/20 05:38:17;;;;;;;23.15;12.95;;;;;;;;;;5057490;28;20048;-82
2021/11/20 05:40:43;;;;;;;22.33;13.10;;;;;;;;;;5040949;28;20048;-82
2021/11/20 05:43:15;;;;;;;18.63;12.10;;;;;;;;;;5057942;28;20117;-82
2021/11/20 05:45:44;;;;;;;22.05;13.93;;;;;;;;;;5058497;28;20048;-81
2021/11/20 05:48:10;;;;;;;21.67;13.27;;;;;;;;;;5057507;28;20075;-81
2021/11/20 05:50:36;;;;;;;21.98;13.82;;;;;;;;;;5041601;28;20476;-81
2021/11/20 05:53:07;;;;;;;23.33;13.43;;;;;;;;;;5074916;28;20053;-82
2021/11/20 05:55:33;;;;;;;19.73;12.95;;;;;;;;;;5075196;28;20040;-82
2021/11/20 05:57:59;;;;;;;18.20;13.25;;;;;;;;;;5041490;28;20131;-82
2021/11/20 06:00:27;;;;;;;20.52;13.13;;;;;;;;;;5057673;28;20103;-82
2021/11/20 06:02:57;;;;;;;20.98;13.45;;;;;;;;;;5074909;28;20467;-82
2021/11/20 06:05:23;;;;;;;21.35;13.18;;;;;;;;;;5075253;28;20084;-82
2021/11/20 06:07:50;;;;;;;20.42;14.07;;;;;;;;;;5057214;28;20048;-86
2021/11/20 06:10:17;;;;;;;18.45;13.48;;;;;;;;;;5057537;28;20056;-81
2021/11/20 06:12:43;;;;;;;24.30;14.27;;;;;;;;;;5040691;28;20401;-82
2021/11/20 06:15:10;;;;;;;21.73;13.75;;;;;;;;;;5057641;28;20469;-81
2021/11/20 06:17:36;;;;;;;21.75;12.55;;;;;;;;;;5057128;28;20049;-82
2021/11/20 06:20:03;;;;;;;20.10;13.32;;;;;;;;;;5056661;28;20052;-83
2021/11/20 06:22:29;;;;;;;20.33;12.88;;;;;;;;;;5056989;28;20047;-80
2021/11/20 06:24:57;;;;;;;22.55;13.82;;;;;;;;;;5056634;28;20040;-82
2021/11/20 06:27:23;;;;;;;21.58;13.57;;;;;;;;;;5040968;28;20045;-82
2021/11/20 06:29:50;;;;;;;20.20;14.25;;;;;;;;;;5056849;28;20040;-87
2021/11/20 06:32:16;;;;;;;21.38;14.52;;;;;;;;;;5057549;28;20087;-83
2021/11/20 06:34:42;;;;;;;21.13;13.50;;;;;;;;;;5074420;28;20484;-82
2021/11/20 06:37:08;;;;;;;21.90;14.05;;;;;;;;;;5057165;28;20055;-83
2021/11/20 06:39:35;;;;;;;19.83;13.15;;;;;;;;;;5040065;28;20040;-83
2021/11/20 06:42:04;;;;;;;21.58;14.35;;;;;;;;;;5056946;28;20119;-82
2021/11/20 06:44:30;;;;;;;21.83;13.70;;;;;;;;;;5056551;28;20485;-81
2021/11/20 06:46:56;;;;;;;19.45;13.48;;;;;;;;;;5056193;28;20052;-81
2021/11/20 06:49:22;;;;;;;19.10;14.05;;;;;;;;;;5056437;28;20106;-83
2021/11/20 06:51:48;;;;;;;21.75;14.68;;;;;;;;;;5073695;28;20051;-82
2021/11/20 06:54:15;;;;;;;19.38;13.73;;;;;;;;;;5055702;28;20543;-81
2021/11/20 06:56:48;;;;;;;23.33;16.30;;;;;;;;;;5040463;28;20521;-83
2021/11/20 07:01:45;;;;;;;18.77;13.27;;;;;;;;;;5055879;28;20048;-81
2021/11/20 07:04:19;;;;;;;17.52;12.20;;;;;;;;;;5055892;28;20475;-83
2021/11/20 07:06:52;;;;;;;17.33;12.68;;;;;;;;;;5039531;28;20160;-82
2021/11/20 07:09:19;;;;;;;16.70;11.80;;;;;;;;;;5056908;28;20059;-82
2021/11/20 07:11:45;;;;;;;17.42;12.38;;;;;;;;;;5073999;28;20044;-82
2021/11/20 07:14:11;;;;;;;18.33;12.10;;;;;;;;;;5055942;28;20044;-82
2021/11/20 07:16:37;;;;;;;18.85;12.20;;;;;;;;;;5056093;28;20045;-82
2021/11/20 07:19:04;;;;;;;17.42;12.02;;;;;;;;;;5055912;28;20070;-82
2021/11/20 07:21:30;;;;;;;15.80;11.27;;;;;;;;;;5039721;28;20564;-82
2021/11/20 07:23:57;;;;;;;16.05;11.85;;;;;;;;;;5055624;28;20045;-81
2021/11/20 07:26:24;;;;;;;14.48;10.68;;;;;;;;;;5056472;28;20372;-85
2021/11/20 07:28:50;;;;;;;15.13;10.80;;;;;;;;;;5055705;28;20508;-83
2021/11/20 07:31:16;;;;;;;14.13;10.27;;;;;;;;;;5055698;28;20503;-82
2021/11/20 07:33:43;;;;;;;15.50;11.07;;;;;;;;;;5055981;28;20041;-82
2021/11/20 07:36:09;;;;;;;14.40;11.05;;;;;;;;;;5055475;28;20493;-83
2021/11/20 07:38:38;;;;;;;16.35;11.10;;;;;;;;;;5056091;28;20477;-82
2021/11/20 07:41:05;;;;;;;16.35;10.98;;;;;;;;;;5039150;28;20491;-81
2021/11/20 07:43:31;;;;;;;13.65;10.70;;;;;;;;;;5055377;28;20131;-82
2021/11/20 07:45:57;;;;;;;14.70;10.25;;;;;;;;;;5039156;28;20045;-82
2021/11/20 07:48:25;;;;;;;14.63;10.75;;;;;;;;;;5055516;28;20506;-81
2021/11/20 07:50:52;;;;;;;15.82;10.60;;;;;;;;;;5055213;28;20059;-85
2021/11/20 07:53:18;;;;;;;16.40;10.43;;;;;;;;;;5055001;28;20056;-83
2021/11/20 07:55:45;;;;;;;18.23;10.45;;;;;;;;;;5055570;28;20055;-81
2021/11/20 07:58:11;;;;;;;15.13;11.23;;;;;;;;;;5055295;28;20123;-82
2021/11/20 08:00:39;;;;;;;18.05;12.18;;;;;;;;;;5055306;28;20124;-81
2021/11/20 08:03:06;;;;;;;15.30;11.10;;;;;;;;;;5054835;28;20045;-82
2021/11/20 08:05:32;;;;;;;17.90;12.55;;;;;;;;;;5038357;28;20048;-81
2021/11/20 08:07:59;;;;;;;15.43;9.68;;;;;;;;;;5055192;28;20393;-81
2021/11/20 08:10:26;;;;;;;15.32;11.38;;;;;;;;;;5039479;28;20346;-81
2021/11/20 08:12:52;;;;;;;14.38;10.55;;;;;;;;;;5055233;28;20052;-87
2021/11/20 08:15:19;;;;;;;17.83;11.30;;;;;;;;;;5054928;28;20044;-81
2021/11/20 08:17:45;;;;;;;16.65;11.85;;;;;;;;;;5055744;28;20378;-81
2021/11/20 08:20:12;;;;;;;16.77;12.93;;;;;;;;;;5072813;28;20508;-82
2021/11/20 08:22:39;;;;;;;17.10;11.48;;;;;;;;;;5055569;28;20051;-81
2021/11/20 08:25:06;;;;;;;15.77;11.00;;;;;;;;;;5054878;28;20135;-82
2021/11/20 08:27:33;;;;;;;19.33;14.80;;;;;;;;;;5055338;28;20048;-81
2021/11/20 08:29:59;;;;;;;18.52;13.18;;;;;;;;;;5055519;28;20470;-82
2021/11/20 08:32:26;;;;;;;18.20;13.93;;;;;;;;;;5055654;28;20430;-82
2021/11/20 08:34:55;;;;;;;21.15;15.13;;;;;;;;;;5038414;28;20131;-85
2021/11/20 08:37:21;;;;;;;20.90;15.85;;;;;;;;;;5054738;28;20146;-81
2021/11/20 08:39:47;;;;;;;21.15;14.88;;;;;;;;;;5038263;28;20052;-83
2021/11/20 08:42:15;;;;;;;19.52;13.90;;;;;;;;;;5038974;28;20043;-82
2021/11/20 08:44:42;;;;;;;22.00;16.52;;;;;;;;;;5054586;28;20052;-82
2021/11/20 08:47:08;;;;;;;22.08;16.25;;;;;;;;;;5055579;28;20399;-82
2021/11/20 08:49:35;;;;;;;23.00;16.05;;;;;;;;;;5055562;28;20109;-83
2021/11/20 08:52:01;;;;;;;23.60;17.95;;;;;;;;;;5054392;28;20131;-82
2021/11/20 08:54:27;;;;;;;24.48;17.13;;;;;;;;;;5038336;28;20055;-82
2021/11/20 08:56:54;;;;;;;24.52;17.90;;;;;;;;;;5055555;28;20127;-85
2021/11/20 08:59:22;;;;;;;24.50;15.52;;;;;;;;;;5054678;28;20056;-81
2021/11/20 09:02:12;;;;;;;23.50;17.35;;;;;;;;;;5038074;28;20048;-81
2021/11/20 09:04:56;;;;;;;25.38;17.15;;;;;;;;;;5048624;28;20120;-81
2021/11/20 09:07:26;;;;;;;22.60;18.17;;;;;;;;;;5055453;28;20476;-82
2021/11/20 09:10:06;;;;;;;23.80;17.83;;;;;;;;;;5055388;28;20413;-81
2021/11/20 09:12:38;;;;;;;24.63;16.13;;;;;;;;;;5055435;28;20492;-81
2021/11/20 09:15:22;;;;;;;23.55;16.63;;;;;;;;;;5038346;28;20355;-82
2021/11/20 09:17:49;;;;;;;24.58;18.30;;;;;;;;;;5058467;28;20044;-81
2021/11/20 09:20:16;;;;;;;22.77;14.65;;;;;;;;;;5042167;28;20041;-82
2021/11/20 09:22:42;;;;;;;19.98;14.80;;;;;;;;;;5058107;28;20067;-82
2021/11/20 09:25:09;;;;;;;22.70;17.98;;;;;;;;;;5058382;28;20132;-81
2021/11/20 09:27:35;;;;;;;24.00;18.52;;;;;;;;;;5041527;28;20481;-82
2021/11/20 09:30:02;;;;;;;22.58;16.83;;;;;;;;;;5058219;28;20392;-81
2021/11/20 09:32:28;;;;;;;21.23;14.13;;;;;;;;;;5057864;28;20055;-83
2021/11/20 09:34:54;;;;;;;23.02;16.73;;;;;;;;;;5042061;28;20184;-83
2021/11/20 09:37:20;;;;;;;21.88;17.45;;;;;;;;;;5041196;28;20052;-82
2021/11/20 09:39:47;;;;;;;22.63;18.10;;;;;;;;;;5075569;28;20127;-81
2021/11/20 09:42:16;;;;;;;20.33;14.35;;;;;;;;;;5058450;28;20393;-82
2021/11/20 09:44:43;;;;;;;23.77;17.77;;;;;;;;;;5057458;28;20575;-81
2021/11/20 09:47:14;;;;;;;21.58;17.48;;;;;;;;;;5057621;28;20397;-81
2021/11/20 09:49:44;;;;;;;26.23;19.75;;;;;;;;;;5058337;28;20055;-82
2021/11/20 09:52:10;;;;;;;23.08;17.77;;;;;;;;;;5058062;28;20080;-81
2021/11/20 09:54:38;;;;;;;21.48;16.00;;;;;;;;;;5040621;28;20409;-81
2021/11/20 09:57:10;;;;;;;22.02;17.60;;;;;;;;;;5057889;28;20458;-83
2021/11/20 09:59:43;;;;;;;25.88;16.60;;;;;;;;;;5040783;28;20052;-82
2021/11/20 10:02:09;;;;;;;23.77;18.70;;;;;;;;;;5075352;28;20090;-82
2021/11/20 10:04:54;;;;;;;79.22;41.92;;;;;;;;;;5056890;28;20041;-82
2021/11/20 10:07:40;;;;;;;25.88;19.05;;;;;;;;;;5057882;28;20048;-82
2021/11/20 10:10:18;;;;;;;25.42;19.10;;;;;;;;;;5057341;28;20044;-81
2021/11/20 10:13:03;;;;;;;24.52;15.88;;;;;;;;;;5075600;28;20098;-81
2021/11/20 10:15:30;;;;;;;20.17;15.48;;;;;;;;;;5040600;28;20088;-82
2021/11/20 10:18:01;;;;;;;28.08;20.15;;;;;;;;;;5057516;28;20554;-85
2021/11/20 10:20:31;;;;;;;25.00;19.02;;;;;;;;;;5040917;28;20048;-82
2021/11/20 10:23:04;;;;;;;26.52;19.20;;;;;;;;;;5056818;28;20048;-86
2021/11/20 10:25:50;;;;;;;26.45;18.23;;;;;;;;;;5041127;28;20048;-82
2021/11/20 10:28:35;;;;;;;25.90;17.38;;;;;;;;;;5057017;28;20049;-81
2021/11/20 10:31:13;;;;;;;21.85;16.63;;;;;;;;;;5040133;28;20436;-81
2021/11/20 10:33:48;;;;;;;28.60;20.48;;;;;;;;;;5040068;28;20079;-83
2021/11/20 10:36:14;;;;;;;;;;;;;;;;;;5057362;28;20055;-81
2021/11/20 10:38:54;;;;;;;27.35;19.77;;;;;;;;;;5040230;28;19920;-81
2021/11/20 10:41:33;;;;;;;23.67;16.60;;;;;;;;;;5056788;28;20040;-82
2021/11/20 10:44:09;;;;;;;24.13;18.40;;;;;;;;;;5057183;28;20103;-81
2021/11/20 10:46:55;;;;;;;27.40;19.40;;;;;;;;;;5056951;28;20477;-82
2021/11/20 10:49:40;;;;;;;27.00;20.65;;;;;;;;;;5056438;28;20083;-82
2021/11/20 10:52:08;;;;;;;28.90;20.77;;;;;;;;;;5039946;28;20492;-82
2021/11/20 10:54:37;;;;;;;30.58;20.85;;;;;;;;;;5074507;28;20057;-81
2021/11/20 10:57:15;;;;;;;30.13;21.65;;;;;;;;;;5056900;28;20477;-81
2021/11/20 10:59:47;;;;;;;30.40;21.58;;;;;;;;;;5073866;28;20047;-81
2021/11/20 11:02:32;;;;;;;29.63;21.60;;;;;;;;;;5056057;28;20481;-83
2021/11/20 11:04:58;;;;;;;32.85;23.08;;;;;;;;;;5055790;28;20041;-86
2021/11/20 11:07:39;;;;;;;34.88;21.90;;;;;;;;;;5056356;28;20048;-82
2021/11/20 11:10:15;;;;;;;33.10;21.77;;;;;;;;;;5055987;28;20131;-82
2021/11/20 11:12:53;;;;;;;34.60;22.73;;;;;;;;;;5056123;28;20048;-82
2021/11/20 11:15:38;;;;;;;34.53;22.60;;;;;;;;;;5056188;28;20095;-81
2021/11/20 11:18:26;;;;;;;35.63;22.33;;;;;;;;;;5055838;28;20041;-81
2021/11/20 11:20:52;;;;;;;30.35;19.83;;;;;;;;;;5073207;28;20603;-81
2021/11/20 11:23:31;;;;;;;37.13;25.40;;;;;;;;;;5039800;28;20438;-82
2021/11/20 11:26:02;;;;;;;37.45;25.05;;;;;;;;;;5039480;28;20090;-87
2021/11/20 11:28:29;;;;;;;38.35;24.08;;;;;;;;;;5056547;28;20103;-81
2021/11/20 11:31:05;;;;;;;41.03;27.13;;;;;;;;;;5039319;28;20052;-82
2021/11/20 11:33:35;;;;;;;38.17;25.30;;;;;;;;;;5056062;28;20098;-83
2021/11/20 11:36:14;;;;;;;40.53;25.33;;;;;;;;;;5055870;28;20354;-82
2021/11/20 11:38:59;;;;;;;38.45;24.85;;;;;;;;;;5055427;28;20048;-82
2021/11/20 11:41:44;;;;;;;36.28;23.52;;;;;;;;;;5055858;28;20044;-82
2021/11/20 11:44:13;;;;;;;36.70;23.15;;;;;;;;;;5038727;28;20044;-82
2021/11/20 11:46:54;;;;;;;39.92;26.35;;;;;;;;;;5055873;28;20045;-81
2021/11/20 11:49:21;;;;;;;38.92;25.17;;;;;;;;;;5038928;28;20428;-81
2021/11/20 11:51:50;;;;;;;44.65;27.05;;;;;;;;;;5056219;28;20059;-83
2021/11/20 11:54:16;;;;;;;41.50;24.90;;;;;;;;;;5054672;28;20133;-81
2021/11/20 11:56:45;;;;;;;42.53;27.67;;;;;;;;;;5055803;28;20049;-83
2021/11/20 11:59:20;;;;;;;50.13;28.90;;;;;;;;;;5055636;28;20041;-81
2021/11/20 12:01:52;;;;;;;41.95;26.63;;;;;;;;;;5039516;28;20463;-81
2021/11/20 12:04:30;;;;;;;41.35;26.08;;;;;;;;;;5055262;28;20040;-82
2021/11/20 12:07:08;;;;;;;43.00;26.02;;;;;;;;;;5056156;28;20083;-81
2021/11/20 12:09:36;;;;;;;46.90;27.60;;;;;;;;;;5055794;28;20065;-82
2021/11/20 12:12:23;;;;;;;44.28;27.10;;;;;;;;;;5038822;28;20143;-82
2021/11/20 12:14:49;;;;;;;45.38;28.15;;;;;;;;;;5061296;28;20055;-82
2021/11/20 12:17:28;;;;;;;40.47;26.00;;;;;;;;;;5055022;28;20048;-83
2021/11/20 12:20:21;;;;;;;40.03;25.45;;;;;;;;;;5039137;28;20084;-81
2021/11/20 12:23:22;;;;;;;42.95;26.85;;;;;;;;;;5038800;28;20139;-82
2021/11/20 12:25:55;;;;;;;37.88;22.98;;;;;;;;;;5069030;28;20438;-82
2021/11/20 12:28:34;;;;;;;42.53;26.50;;;;;;;;;;5039191;28;20049;-83
2021/11/20 12:31:16;;;;;;;41.17;24.48;;;;;;;;;;5038972;28;20048;-87
2021/11/20 12:33:46;;;;;;;46.60;27.80;;;;;;;;;;5039172;28;20064;-81
2021/11/20 12:36:22;;;;;;;39.83;24.92;;;;;;;;;;5038328;28;20048;-81
2021/11/20 12:39:07;;;;;;;44.35;26.83;;;;;;;;;;5039056;28;20048;-82
2021/11/20 12:41:52;;;;;;;36.25;21.08;;;;;;;;;;5055008;28;20040;-82
2021/11/20 12:44:25;;;;;;;40.20;24.48;;;;;;;;;;5055158;28;20056;-82
2021/11/20 12:47:10;;;;;;;43.10;25.98;;;;;;;;;;5055361;28;20477;-81
2021/11/20 12:49:54;;;;;;;38.15;21.95;;;;;;;;;;5055313;28;20183;-81
2021/11/20 12:52:23;;;;;;;41.30;25.60;;;;;;;;;;5041416;28;20123;-83
2021/11/20 12:54:53;;;;;;;39.03;25.10;;;;;;;;;;5058336;28;20056;-81
2021/11/20 12:57:23;;;;;;;41.17;25.48;;;;;;;;;;5058555;28;20043;-82
2021/11/20 13:00:21;;;;;;;40.28;25.70;;;;;;;;;;5058597;28;20091;-82
2021/11/20 13:02:55;;;;;;;35.05;22.70;;;;;;;;;;5025736;28;20067;-84
2021/11/20 13:05:30;;;;;;;39.63;24.88;;;;;;;;;;5058839;28;20051;-82
2021/11/20 13:08:15;;;;;;;38.08;23.17;;;;;;;;;;5059269;28;20130;-82
2021/11/20 13:10:41;;;;;;;32.85;21.20;;;;;;;;;;5041587;28;20048;-83
2021/11/20 13:13:13;;;;;;;36.85;22.27;;;;;;;;;;5058703;28;20127;-84
2021/11/20 13:15:57;;;;;;;37.00;20.98;;;;;;;;;;5041562;28;20048;-83
2021/11/20 13:18:23;;;;;;;28.73;16.63;;;;;;;;;;5041235;28;20048;-85
2021/11/20 13:21:11;;;;;;;39.42;22.33;;;;;;;;;;5058141;28;20477;-84
2021/11/20 13:23:39;;;;;;;34.10;20.80;;;;;;;;;;5057675;28;20096;-85
2021/11/20 13:26:05;;;;;;;36.58;21.38;;;;;;;;;;5058030;28;20052;-85
2021/11/20 13:28:42;;;;;;;29.70;17.50;;;;;;;;;;5057993;28;20047;-83
2021/11/20 13:31:09;;;;;;;31.40;17.60;;;;;;;;;;5042067;28;20049;-84
2021/11/20 13:33:35;;;;;;;22.90;14.63;;;;;;;;;;5041379;28;20040;-84
2021/11/20 13:36:04;;;;;;;17.73;12.68;;;11.50;99.90;;;;;;5057886;28;20047;-86
2021/11/20 13:38:30;;;;;;;21.67;13.93;;;11.70;99.90;;;;;;5075864;28;20135;-88
2021/11/20 13:40:58;;;;;;;24.75;16.00;;;10.90;99.90;;;;;;5058368;28;20076;-86
2021/11/20 13:43:35;;;;;;;23.92;15.68;;;10.80;99.90;;;;;;5057722;28;20044;-88
2021/11/20 13:46:07;;;;;;;23.63;14.82;;;10.60;99.90;;;;;;5041025;28;20048;-90
2021/11/20 13:48:34;;;;;;;22.05;15.45;;;10.60;99.90;;;;;;5058053;28;20127;-85
2021/11/20 13:51:02;;;;;;;22.83;15.23;;;10.50;99.90;;;;;;5057827;28;20046;-89
2021/11/20 13:53:33;;;;;;;22.13;14.48;;;10.50;99.90;;;;;;5056848;28;20052;-84
2021/11/20 13:56:03;;;;;;;18.77;11.80;;;10.50;99.90;;;;;;5041373;28;20053;-85
2021/11/20 13:58:34;;;;;;;24.17;13.88;;;10.50;99.90;;;;;;5057894;28;20481;-86
2021/11/20 14:01:02;;;;;;;20.48;14.40;;;10.50;99.90;;;;;;5075516;28;20045;-86
2021/11/20 14:03:29;;;;;;;18.92;13.38;;;10.50;99.90;;;;;;5057430;28;20052;-86
2021/11/20 14:05:56;;;;;;;20.63;13.07;;;10.50;99.90;;;;;;5040952;28;20543;-85
2021/11/20 14:08:24;;;;;;;20.75;13.80;;;10.50;99.90;;;;;;5058122;28;20052;-86
2021/11/20 14:11:01;;;;;;;22.20;15.80;;;10.50;99.90;;;;;;5057768;28;20076;-85
2021/11/20 14:13:32;;;;;;;20.77;14.02;;;10.50;99.90;;;;;;5057473;28;20121;-86
2021/11/20 14:16:00;;;;;;;18.63;12.18;;;10.50;99.90;;;;;;5041553;28;20063;-85
2021/11/20 14:18:26;;;;;;;20.77;14.07;;;10.50;99.90;;;;;;5056700;28;20059;-85
2021/11/20 14:20:56;;;;;;;21.30;13.75;;;10.50;99.90;;;;;;5040711;28;20139;-86
2021/11/20 14:23:24;;;;;;;19.38;12.90;;;10.50;99.90;;;;;;5040044;28;20041;-85
2021/11/20 14:25:53;;;;;;;19.30;11.88;;;10.60;99.90;;;;;;5057396;28;20375;-86
2021/11/20 14:28:22;;;;;;;21.20;13.77;;;10.60;99.90;;;;;;5040424;28;20044;-86